Time;durP1;ratioP1;P1;durP2;ratioP2;P2;SDS_P1;SDS_P2;PMS_P1;PMS_P2;Temp;Humidity;BMP_temperature;BMP_pressure;BME280_temperature;BME280_humidity;BME280_pressure;Samples;Min_cycle;Max_cycle;Signal;HPM_P1;HPM_P2
2021/06/22 00:02:00;;;;;;;14.80;2.50;;;;;;;21.49;54.55;98838.23;1748583;81;20907;-65
2021/06/22 00:04:26;;;;;;;9.95;2.47;;;;;;;21.47;54.60;98837.56;1744323;81;21486;-64
2021/06/22 00:06:53;;;;;;;8.45;2.58;;;;;;;21.47;54.61;98838.39;1746093;81;22566;-65
2021/06/22 00:09:20;;;;;;;12.37;2.80;;;;;;;21.45;54.67;98835.05;1742794;81;20924;-65
2021/06/22 00:11:46;;;;;;;16.10;3.25;;;;;;;21.42;54.71;98828.24;1744127;81;20975;-65
2021/06/22 00:14:13;;;;;;;9.15;2.65;;;;;;;21.40;54.71;98831.59;1746452;81;21041;-65
2021/06/22 00:16:40;;;;;;;6.25;3.00;;;;;;;21.41;54.88;98831.08;1746021;81;21875;-65
2021/06/22 00:19:06;;;;;;;5.25;2.25;;;;;;;21.40;54.88;98830.76;1743654;81;21074;-65
2021/06/22 00:21:33;;;;;;;12.03;2.70;;;;;;;21.38;54.96;98828.25;1743152;81;20976;-65
2021/06/22 00:24:00;;;;;;;9.33;2.95;;;;;;;21.36;54.98;98828.05;1741906;81;20967;-65
2021/06/22 00:26:26;;;;;;;9.53;3.75;;;;;;;21.34;55.04;98826.91;1743211;81;21208;-65
2021/06/22 00:28:53;;;;;;;6.55;2.60;;;;;;;21.31;55.09;98832.51;1704812;81;21043;-65
2021/06/22 00:31:20;;;;;;;5.45;2.40;;;;;;;21.29;55.16;98825.22;1709402;82;21510;-65
2021/06/22 00:33:46;;;;;;;4.58;2.72;;;;;;;21.26;55.19;98830.00;1710565;82;20960;-65
2021/06/22 00:36:13;;;;;;;14.38;3.10;;;;;;;21.21;55.23;98824.70;1703761;82;21024;-65
2021/06/22 00:38:40;;;;;;;11.10;2.80;;;;;;;21.18;55.32;98818.89;1703095;82;21025;-65
2021/06/22 00:41:07;;;;;;;6.72;2.83;;;;;;;21.17;55.35;98822.05;1704175;83;20961;-65
2021/06/22 00:43:38;;;;;;;6.65;2.85;;;;;;;21.15;55.39;98814.73;1701599;83;21482;-65
2021/06/22 00:46:05;;;;;;;12.45;2.85;;;;;;;21.15;55.49;98814.73;1706582;82;21046;-65
2021/06/22 00:48:33;;;;;;;9.73;2.55;;;;;;;21.12;55.52;98813.73;1700665;82;26656;-65
2021/06/22 00:50:59;;;;;;;11.88;2.75;;;;;;;21.08;55.54;98815.03;1705801;83;21064;-65
2021/06/22 00:53:26;;;;;;;13.03;2.87;;;;;;;21.06;55.57;98814.39;1709611;82;20954;-65
2021/06/22 00:55:54;;;;;;;9.98;2.60;;;;;;;21.04;55.60;98814.22;1706100;83;21659;-65
2021/06/22 00:58:22;;;;;;;7.58;2.60;;;;;;;21.00;55.70;98809.70;1713466;82;21060;-65
2021/06/22 01:00:49;;;;;;;9.93;2.80;;;;;;;20.98;55.72;98810.38;1710157;82;20983;-65
2021/06/22 01:03:16;;;;;;;;;;;;;;;20.95;55.82;98804.08;1708111;82;21018;-65
2021/06/22 01:05:43;;;;;;;6.90;2.65;;;;;;;20.94;56.03;98801.06;1708334;82;20173;-65
2021/06/22 01:08:11;;;;;;;;;;;;;;;20.92;55.99;98804.37;1713807;82;21527;-65
2021/06/22 01:10:38;;;;;;;7.33;2.60;;;;;;;20.90;56.14;98798.41;1709020;82;20503;-65
2021/06/22 01:13:05;;;;;;;5.03;2.83;;;;;;;20.88;56.12;98801.72;1708337;83;21543;-65
2021/06/22 01:15:32;;;;;;;10.32;2.77;;;;;;;20.85;56.13;98803.37;1711392;83;21111;-65
2021/06/22 01:18:02;;;;;;;11.75;2.77;;;;;;;20.82;56.15;98806.34;1705218;82;21017;-65
2021/06/22 01:20:31;;;;;;;7.28;2.75;;;;;;;20.78;56.27;98804.02;1708640;82;21089;-65
2021/06/22 01:23:02;;;;;;;6.87;2.85;;;;;;;20.75;56.31;98806.98;1710958;83;20986;-65
2021/06/22 01:25:30;;;;;;;7.08;3.47;;;;;;;20.73;56.35;98807.63;1702479;82;21009;-65
2021/06/22 01:27:57;;;;;;;5.37;2.60;;;;;;;20.71;56.47;98806.95;1715940;81;20965;-65
2021/06/22 01:30:25;;;;;;;;;;;;;;;20.69;56.55;98807.60;1746368;81;20959;-65
2021/06/22 01:32:52;;;;;;;11.80;2.60;;;;;;;20.68;56.80;98813.91;1746547;81;21868;-65
2021/06/22 01:35:19;;;;;;;7.83;3.15;;;;;;;20.67;56.75;98817.56;1745041;81;21675;-65
2021/06/22 01:38:05;;;;;;;6.85;3.08;;;;;;;20.61;56.69;98831.44;1737756;81;20995;-65
2021/06/22 01:40:32;;;;;;;7.70;3.10;;;;;;;20.55;56.98;98825.44;1738615;81;21634;-65
2021/06/22 01:43:00;;;;;;;6.78;2.80;;;;;;;20.51;57.01;98823.58;1747790;81;21015;-65
2021/06/22 01:45:28;;;;;;;8.53;3.08;;;;;;;20.47;57.04;98821.39;1744795;81;21904;-65
2021/06/22 01:47:55;;;;;;;7.47;2.55;;;;;;;20.42;57.31;98821.88;1746000;81;20999;-65
2021/06/22 01:50:21;;;;;;;6.28;2.70;;;;;;;20.37;57.34;98822.02;1744711;81;20941;-65
2021/06/22 01:52:50;;;;;;;7.42;2.60;;;;;;;20.31;57.42;98824.80;1742913;81;20964;-65
2021/06/22 01:58:06;;;;;;;9.40;2.95;;;;;;;20.17;57.69;98835.47;1739393;81;22304;-64
2021/06/22 02:00:33;;;;;;;3.90;2.47;;;;;;;20.09;57.90;98834.91;1736087;80;20990;-64
2021/06/22 02:03:00;;;;;;;8.98;3.00;;;;;;;20.10;58.03;98835.73;1744411;80;20998;-65
2021/06/22 02:05:26;;;;;;;8.78;3.22;;;;;;;20.08;58.14;98827.10;1735338;80;21551;-65
2021/06/22 02:07:53;;;;;;;6.72;2.60;;;;;;;20.06;58.32;98826.45;1737784;80;21025;-65
2021/06/22 02:10:20;;;;;;;4.85;2.60;;;;;;;20.03;58.40;98832.06;1741671;80;21468;-65
2021/06/22 02:12:47;;;;;;;8.48;2.92;;;;;;;20.00;58.47;98829.23;1737398;80;20924;-65
2021/06/22 02:15:15;;;;;;;14.00;3.92;;;;;;;19.99;58.69;98830.69;1746159;80;21001;-65
2021/06/22 02:17:42;;;;;;;7.97;3.02;;;;;;;19.98;58.68;98826.39;1742702;80;20997;-65
2021/06/22 02:20:10;;;;;;;17.55;7.10;;;;;;;20.00;58.76;98821.78;1735965;80;21013;-65
2021/06/22 02:22:37;;;;;;;23.42;6.58;;;;;;;20.06;58.81;98815.85;1735812;80;21083;-65
2021/06/22 02:25:07;;;;;;;30.50;9.15;;;;;;;20.08;58.89;98819.16;1740342;80;21028;-65
2021/06/22 02:27:35;;;;;;;34.30;8.00;;;;;;;20.03;58.96;98821.46;1724271;81;21070;-65
2021/06/22 02:30:11;;;;;;;13.48;4.62;;;;;;;20.02;59.11;98823.75;1733574;82;21049;-65
2021/06/22 02:32:40;;;;;;;14.03;4.45;;;;;;;20.02;59.25;98819.78;1705047;82;21033;-65
2021/06/22 02:35:11;;;;;;;6.45;3.40;;;;;;;19.95;59.36;98821.41;1743369;80;21955;-64
2021/06/22 02:37:39;;;;;;;10.58;3.55;;;;;;;19.88;59.37;98826.00;1744786;80;20988;-65
2021/06/22 02:40:09;;;;;;;9.33;3.00;;;;;;;19.78;59.39;98829.22;1745109;80;21075;-65
2021/06/22 02:42:36;;;;;;;12.45;3.45;;;;;;;19.74;59.55;98822.55;1740790;80;21008;-65
2021/06/22 02:45:04;;;;;;;8.50;3.50;;;;;;;19.92;59.87;98827.01;1747918;80;20937;-65
2021/06/22 02:47:30;;;;;;;10.78;3.12;;;;;;;20.21;59.80;98824.88;1742226;80;21047;-65
2021/06/22 02:49:57;;;;;;;8.20;3.55;;;;;;;20.54;59.83;98829.92;1744668;80;20996;-65
2021/06/22 02:52:23;;;;;;;9.30;2.90;;;;;;;20.86;59.70;98835.53;1747971;80;21447;-65
2021/06/22 02:54:50;;;;;;;5.83;3.17;;;;;;;21.17;59.82;98830.48;1747938;80;20945;-65
2021/06/22 02:57:16;;;;;;;6.42;2.67;;;;;;;21.61;59.76;98833.75;1744370;80;21066;-65
2021/06/22 02:59:43;;;;;;;8.00;3.35;;;;;;;22.08;59.69;98829.11;1757714;80;21971;-65
2021/06/22 03:02:10;;;;;;;12.03;3.10;;;;;;;22.62;59.53;98837.00;1745211;80;20969;-65
2021/06/22 03:04:37;;;;;;;8.23;3.12;;;;;;;23.09;59.19;98838.84;1736402;80;20941;-65
2021/06/22 03:07:04;;;;;;;21.17;3.72;;;;;;;23.48;59.00;98833.45;1738882;80;22120;-65
2021/06/22 03:09:30;;;;;;;;;;;;;;;23.94;58.79;98835.30;1749718;80;21039;-65
2021/06/22 03:11:58;;;;;;;62.15;6.25;;;;;;;24.41;58.26;98836.86;1740027;80;21172;-65
2021/06/22 03:14:25;;;;;;;;;;;;;;;24.84;58.09;98846.41;1729415;82;20981;-65
2021/06/22 03:16:52;;;;;;;18.70;3.75;;;;;;;25.33;57.45;98848.48;1721979;82;20137;-65
2021/06/22 03:19:20;;;;;;;11.35;3.22;;;;;;;25.53;56.99;98852.19;1731481;82;21015;-65
2021/06/22 03:21:47;;;;;;;17.98;3.75;;;;;;;25.77;56.75;98856.86;1734540;81;21012;-65
2021/06/22 03:24:17;;;;;;;15.15;3.87;;;;;;;25.95;56.21;98850.55;1739428;80;21138;-65
2021/06/22 03:26:45;;;;;;;13.22;3.72;;;;;;;26.18;56.03;98856.19;1739748;80;20965;-66
2021/06/22 03:29:13;;;;;;;29.15;4.85;;;;;;;26.66;55.66;98854.99;1749841;80;20933;-66
2021/06/22 03:31:40;;;;;;;14.50;3.67;;;;;;;27.06;55.25;98849.86;1737237;82;21019;-65
2021/06/22 03:34:06;;;;;;;13.58;3.47;;;;;;;27.45;54.73;98843.30;1722404;81;21240;-65
2021/06/22 03:36:33;;;;;;;;;;;;;;;27.79;54.24;98836.17;1765999;80;21970;-65
2021/06/22 03:39:00;;;;;;;18.80;3.52;;;;;;;28.10;53.62;98841.44;1723828;81;20132;-66
2021/06/22 03:41:27;;;;;;;14.00;3.77;;;;;;;28.16;52.88;98836.58;1726224;82;20982;-65
2021/06/22 03:43:58;;;;;;;;;;;;;;;28.18;52.46;98842.57;1720440;81;20919;-65
2021/06/22 03:46:25;;;;;;;22.40;3.37;;;;;;;28.27;52.20;98841.31;1720986;81;20478;-66
2021/06/22 03:48:51;;;;;;;24.72;3.92;;;;;;;28.33;51.73;98848.53;1725493;82;21122;-65
2021/06/22 03:51:18;;;;;;;16.32;3.60;;;;;;;28.49;52.21;98845.15;1723516;81;21045;-66
2021/06/22 03:53:44;;;;;;;;;;;;;;;29.18;52.03;98847.22;1722230;82;20935;-66
2021/06/22 03:56:11;;;;;;;26.00;4.05;;;;;;;29.49;50.96;98836.69;1726874;81;20142;-66
2021/06/22 03:58:38;;;;;;;18.60;3.70;;;;;;;29.54;50.47;98832.31;1724373;81;21010;-66
2021/06/22 04:01:05;;;;;;;16.97;2.77;;;;;;;29.65;50.28;98831.64;1725777;82;21476;-66
2021/06/22 04:03:32;;;;;;;10.82;2.92;;;;;;;29.98;49.79;98833.27;1720327;82;20955;-65
2021/06/22 04:05:59;;;;;;;12.80;2.77;;;;;;;30.25;49.45;98833.05;1721854;82;21006;-65
2021/06/22 04:08:26;;;;;;;11.63;2.55;;;;;;;30.69;49.18;98836.55;1715425;82;21017;-66
2021/06/22 04:10:53;;;;;;;7.75;2.90;;;;;;;31.12;48.72;98846.45;1727563;81;20951;-65
2021/06/22 04:13:19;;;;;;;10.43;2.80;;;;;;;31.33;48.16;98845.94;1726032;81;21114;-65
2021/06/22 04:15:46;;;;;;;14.90;3.12;;;;;;;31.49;47.70;98849.09;1722797;82;20998;-65
2021/06/22 04:18:13;;;;;;;7.05;2.90;;;;;;;30.88;47.05;98849.00;1722826;81;21005;-65
2021/06/22 04:20:42;;;;;;;30.72;4.58;;;;;;;30.43;47.50;98845.21;1756107;80;21567;-65
2021/06/22 04:23:29;;;;;;;54.83;7.05;;;;;;;30.72;47.39;98849.56;1733616;80;21077;-65
2021/06/22 04:25:55;;;;;;;543.17;47.58;;;;;;;30.66;47.26;98847.77;1748596;80;21116;-65
2021/06/22 04:28:22;;;;;;;294.87;23.77;;;;;;;30.99;46.78;98851.47;1717985;81;21023;-65
2021/06/22 04:30:49;;;;;;;175.53;15.08;;;;;;;31.42;46.28;98847.31;1749686;80;20970;-66
2021/06/22 04:33:16;;;;;;;95.45;10.85;;;;;;;31.57;45.77;98851.47;1733798;81;23019;-65
2021/06/22 04:35:43;;;;;;;134.20;12.40;;;;;;;31.81;45.53;98853.14;1738735;81;20972;-65
2021/06/22 04:38:10;;;;;;;84.52;8.75;;;;;;;32.28;45.24;98858.64;1742200;81;21464;-65
2021/06/22 04:40:38;;;;;;;30.15;4.55;;;;;;;32.78;44.71;98859.23;1733388;81;20981;-65
2021/06/22 04:43:06;;;;;;;43.78;5.08;;;;;;;33.23;44.27;98863.96;1742866;82;20953;-65
2021/06/22 04:45:34;;;;;;;43.45;5.60;;;;;;;33.68;43.90;98862.66;1737965;81;20999;-65
2021/06/22 04:48:01;;;;;;;71.25;7.42;;;;;;;34.04;43.31;98864.12;1734328;81;22481;-65
2021/06/22 04:50:28;;;;;;;114.37;11.00;;;;;;;34.28;42.80;98863.92;1736589;82;21151;-65
2021/06/22 04:52:55;;;;;;;26.20;3.83;;;;;;;34.36;42.02;98862.16;1742011;82;20977;-65
2021/06/22 04:55:25;;;;;;;14.07;2.80;;;;;;;33.67;41.20;98857.48;1736693;81;21051;-65
2021/06/22 04:57:50;;;;;;;90.10;8.65;;;;;;;33.19;41.13;98859.03;1743137;81;21036;-65
2021/06/22 05:00:19;;;;;;;29.82;4.65;;;;;;;32.54;40.60;98857.36;1737269;81;20934;-65
2021/06/22 05:02:46;;;;;;;30.08;4.22;;;;;;;31.85;40.86;98867.03;1740816;81;21035;-65
2021/06/22 05:05:32;;;;;;;24.15;4.17;;;;;;;31.95;40.91;98869.17;1743213;81;20982;-65
2021/06/22 05:07:59;;;;;;;19.10;3.92;;;;;;;32.32;40.74;98863.88;1678554;84;21004;-66
2021/06/22 05:10:25;;;;;;;65.05;5.58;;;;;;;32.82;40.60;98860.39;1680059;84;21076;-65
2021/06/22 05:12:52;;;;;;;47.35;5.65;;;;;;;33.13;40.03;98866.73;1680376;84;21051;-65
2021/06/22 05:15:20;;;;;;;40.90;5.28;;;;;;;33.41;39.81;98861.05;1679931;83;22313;-65
2021/06/22 05:17:48;;;;;;;25.72;3.72;;;;;;;33.52;39.33;98856.65;1666013;84;21002;-65
2021/06/22 05:20:17;;;;;;;26.87;4.10;;;;;;;33.59;39.16;98862.24;1671367;84;21084;-65
2021/06/22 05:22:46;;;;;;;28.32;4.03;;;;;;;33.91;39.19;98870.36;1666421;84;21070;-66
2021/06/22 05:25:14;;;;;;;39.20;5.08;;;;;;;34.38;38.67;98862.73;1670614;84;21006;-66
2021/06/22 05:27:41;;;;;;;51.63;5.30;;;;;;;34.52;38.34;98855.89;1671490;84;21172;-67
2021/06/22 05:30:10;;;;;;;15.38;3.15;;;;;;;34.78;38.11;98852.19;1672630;84;21132;-66
2021/06/22 05:32:36;;;;;;;16.60;3.62;;;;;;;35.02;37.73;98854.67;1640550;84;21013;-66
2021/06/22 05:35:05;;;;;;;23.90;4.35;;;;;;;35.09;37.40;98851.24;1649366;84;21022;-66
2021/06/22 05:37:34;;;;;;;26.07;4.10;;;;;;;35.15;37.13;98853.78;1673613;84;21113;-66
2021/06/22 05:40:01;;;;;;;30.25;4.85;;;;;;;35.27;36.78;98848.20;1686117;84;21050;-66
2021/06/22 05:42:28;;;;;;;19.12;3.67;;;;;;;35.17;36.52;98850.80;1673255;84;21517;-66
2021/06/22 05:44:55;;;;;;;28.32;3.85;;;;;;;35.60;36.60;98856.72;1657364;84;21564;-66
2021/06/22 05:47:22;;;;;;;51.95;4.87;;;;;;;35.95;36.30;98864.07;1675843;83;21072;-66
2021/06/22 05:49:49;;;;;;;15.00;3.35;;;;;;;36.20;35.87;98867.02;1681783;84;21715;-66
2021/06/22 05:52:15;;;;;;;16.25;3.35;;;;;;;36.14;35.58;98878.93;1679412;84;21494;-66
2021/06/22 05:54:42;;;;;;;11.48;2.72;;;;;;;36.34;35.57;98882.88;1676916;84;20970;-67
2021/06/22 05:57:09;;;;;;;72.85;10.15;;;;;;;36.64;35.25;98886.37;1683105;84;21018;-66
2021/06/22 05:59:36;;;;;;;16.32;2.92;;;;;;;36.93;35.07;98893.57;1642648;85;21527;-65
2021/06/22 06:02:03;;;;;;;47.85;6.60;;;;;;;37.38;33.89;98897.58;1661555;84;21038;-67
2021/06/22 06:04:31;;;;;;;60.58;11.20;;;;;;;36.96;33.99;98901.20;1686608;83;21254;-66
2021/06/22 06:06:59;;;;;;;48.42;9.05;;;;;;;36.96;34.29;98905.28;1661058;84;21001;-66
2021/06/22 06:09:27;;;;;;;34.25;4.40;;;;;;;37.07;33.93;98906.99;1669970;84;20996;-65
2021/06/22 06:11:54;;;;;;;45.83;6.03;;;;;;;36.91;32.99;98907.97;1669166;84;20974;-66
2021/06/22 06:14:22;;;;;;;19.23;3.10;;;;;;;36.48;33.38;98907.16;1665380;84;21081;-66
2021/06/22 06:16:48;;;;;;;10.25;2.52;;;;;;;36.62;33.38;98909.73;1650694;84;21608;-67
2021/06/22 06:19:15;;;;;;;26.48;4.47;;;;;;;36.79;33.45;98923.70;1665174;84;21044;-66
2021/06/22 06:21:43;;;;;;;13.08;2.85;;;;;;;37.36;33.36;98921.52;1668964;84;21029;-66
2021/06/22 06:24:10;;;;;;;14.75;3.05;;;;;;;37.52;32.86;98923.23;1667736;84;21337;-66
2021/06/22 06:27:26;;;;;;;20.72;3.70;;;;;;;37.37;32.38;98918.55;1671629;84;21039;-67
2021/06/22 06:29:15;;;;;;;19.35;3.95;;;;;;;36.67;32.26;98928.80;1650895;84;22275;-66
2021/06/22 06:31:35;;;;;;;25.72;4.08;;;;;;;36.43;31.66;98935.66;1671725;84;21034;-66
2021/06/22 06:34:01;;;;;;;12.10;3.33;;;;;;;35.78;32.06;98930.19;1668416;84;21584;-66
2021/06/22 06:36:28;;;;;;;16.07;3.70;;;;;;;35.48;31.48;98937.98;1666951;84;21094;-66
2021/06/22 06:38:55;;;;;;;11.85;3.27;;;;;;;34.64;31.70;98934.96;1668253;84;21009;-66
2021/06/22 06:41:22;;;;;;;15.05;3.30;;;;;;;34.60;31.28;98936.54;1668870;84;21082;-66
2021/06/22 06:43:48;;;;;;;11.25;3.12;;;;;;;33.52;31.66;98944.09;1669536;84;21554;-66
2021/06/22 06:46:15;;;;;;;36.23;5.03;;;;;;;33.00;32.36;98949.50;1665068;84;20955;-65
2021/06/22 06:48:42;;;;;;;27.30;5.12;;;;;;;32.97;33.24;98958.88;1663074;84;20931;-66
2021/06/22 06:51:09;;;;;;;17.02;4.15;;;;;;;32.90;33.17;98957.35;1664906;84;20974;-66
2021/06/22 06:53:36;;;;;;;18.87;4.42;;;;;;;32.44;33.50;98972.48;1668412;84;21486;-66
2021/06/22 06:56:07;;;;;;;21.12;4.25;;;;;;;32.44;33.50;98972.48;1668000;84;21086;-65
2021/06/22 06:58:35;;;;;;;23.15;4.12;;;;;;;32.13;33.85;98971.71;1646010;84;21601;-66
2021/06/22 07:01:02;;;;;;;19.15;4.70;;;;;;;31.75;34.80;98978.22;1668908;84;21117;-66
2021/06/22 07:03:29;;;;;;;13.80;4.50;;;;;;;31.02;35.65;98966.11;1668182;84;20974;-66
2021/06/22 07:05:55;;;;;;;21.25;5.65;;;;;;;30.74;36.77;98968.73;1668936;84;21534;-66
2021/06/22 07:08:22;;;;;;;12.63;4.53;;;;;;;30.69;36.86;98960.48;1657795;84;21035;-66
2021/06/22 07:10:49;;;;;;;16.35;5.17;;;;;;;30.81;37.87;98972.23;1657510;84;21036;-65
2021/06/22 07:13:16;;;;;;;17.17;5.15;;;;;;;30.30;38.23;98978.63;1659285;84;22181;-65
2021/06/22 07:15:43;;;;;;;17.45;5.37;;;;;;;30.17;39.01;98966.06;1682492;84;21014;-66
2021/06/22 07:18:10;;;;;;;12.95;4.37;;;;;;;29.84;39.45;98966.27;1675967;84;22335;-65
2021/06/22 07:20:37;;;;;;;23.40;4.50;;;;;;;29.54;41.31;98978.89;1674813;84;20914;-65
2021/06/22 07:23:04;;;;;;;19.87;4.50;;;;;;;29.66;40.62;98978.58;1680622;84;21034;-66
2021/06/22 07:25:31;;;;;;;9.85;3.95;;;;;;;29.52;41.28;98989.55;1675927;84;21039;-65
2021/06/22 07:27:57;;;;;;;9.00;3.72;;;;;;;29.10;41.07;98984.53;1675779;84;21020;-65
2021/06/22 07:30:26;;;;;;;43.55;5.90;;;;;;;29.17;42.43;98992.05;1673640;84;21117;-65
2021/06/22 07:32:54;;;;;;;9.48;3.60;;;;;;;29.12;41.93;98991.03;1678692;84;21039;-65
2021/06/22 07:35:22;;;;;;;50.15;9.05;;;;;;;29.14;41.82;98989.78;1675998;84;21615;-65
2021/06/22 07:37:50;;;;;;;138.50;19.02;;;;;;;28.89;42.39;98992.80;1671116;84;21700;-65
2021/06/22 07:40:17;;;;;;;11.97;3.85;;;;;;;29.16;42.52;98994.44;1674857;84;21602;-65
2021/06/22 07:42:44;;;;;;;15.18;4.67;;;;;;;28.81;43.66;98998.39;1679065;83;21249;-66
2021/06/22 07:45:13;;;;;;;13.95;4.97;;;;;;;28.30;43.11;99005.98;1685665;83;20962;-65
2021/06/22 07:47:39;;;;;;;9.25;4.08;;;;;;;28.31;43.91;99002.26;1653675;85;21052;-65
2021/06/22 07:50:08;;;;;;;;;;;;;;;28.08;43.87;99001.81;1685605;83;20958;-65
2021/06/22 07:52:34;;;;;;;14.68;4.80;;;;;;;27.82;44.01;98999.38;1683572;84;20594;-65
2021/06/22 07:55:01;;;;;;;;;;;;;;;27.59;44.55;99002.36;1693343;83;21102;-65
2021/06/22 07:57:27;;;;;;;15.53;4.80;;;;;;;27.51;45.00;99007.07;1689284;84;20079;-65
2021/06/22 07:59:54;;;;;;;9.05;3.67;;;;;;;27.37;44.94;98988.23;1689714;83;21071;-65
2021/06/22 08:02:22;;;;;;;8.33;4.00;;;;;;;27.49;45.96;98982.30;1685671;84;21532;-66
2021/06/22 08:04:49;;;;;;;10.45;4.40;;;;;;;27.31;45.83;98995.73;1691775;83;21010;-65
2021/06/22 08:07:16;;;;;;;16.55;4.17;;;;;;;27.27;45.93;98998.48;1693818;83;22237;-65
2021/06/22 08:09:42;;;;;;;;;;;;;;;27.40;45.78;98997.22;1696079;83;21622;-65
2021/06/22 08:12:09;;;;;;;;;;;;;;;27.47;45.85;99003.12;1698407;83;20098;-65
2021/06/22 08:14:36;;;;;;;23.15;5.65;;;;;;;27.59;45.75;98994.84;1697680;83;20164;-65
2021/06/22 08:17:03;;;;;;;15.88;4.47;;;;;;;27.77;45.74;98992.41;1669380;83;21037;-65
2021/06/22 08:19:30;;;;;;;9.78;3.87;;;;;;;27.96;45.47;98998.08;1692997;83;21636;-65
2021/06/22 08:21:57;;;;;;;10.10;3.67;;;;;;;27.99;45.38;98994.99;1697770;83;21026;-65
2021/06/22 08:24:24;;;;;;;13.32;4.67;;;;;;;27.96;45.04;98998.08;1698246;83;21096;-65
2021/06/22 08:26:50;;;;;;;15.53;5.35;;;;;;;27.93;45.42;98997.15;1695294;83;21044;-65
2021/06/22 08:29:17;;;;;;;11.38;3.87;;;;;;;28.17;45.78;98997.91;1694271;83;21907;-64
2021/06/22 08:31:44;;;;;;;7.97;3.40;;;;;;;28.66;45.58;98998.09;1676281;83;21299;-66
2021/06/22 08:34:10;;;;;;;;;;;;;;;29.04;45.56;98988.56;1702883;83;21060;-64
2021/06/22 08:36:37;;;;;;;12.33;4.72;;;;;;;29.06;44.87;98984.63;1697011;83;20140;-65
2021/06/22 08:39:04;;;;;;;;;;;;;;;28.97;44.77;98983.18;1707003;83;20935;-64
2021/06/22 08:41:34;;;;;;;9.38;3.80;;;;;;;29.17;45.24;98988.02;1703635;83;20180;-64
2021/06/22 08:44:04;;;;;;;11.90;4.08;;;;;;;29.51;44.75;98992.77;1696910;83;21068;-66
2021/06/22 08:46:31;;;;;;;10.08;4.03;;;;;;;29.55;44.47;98990.47;1674644;83;20967;-65
2021/06/22 08:49:00;;;;;;;11.90;4.72;;;;;;;29.53;44.87;98996.60;1689765;83;21566;-65
2021/06/22 08:51:27;;;;;;;9.05;4.20;;;;;;;29.48;44.36;98982.44;1691474;83;21545;-66
2021/06/22 08:53:53;;;;;;;16.70;3.98;;;;;;;29.30;44.35;98993.07;1694447;83;20994;-66
2021/06/22 08:56:20;;;;;;;9.15;4.03;;;;;;;28.66;44.20;98996.75;1688119;83;21514;-66
2021/06/22 08:58:47;;;;;;;35.40;6.75;;;;;;;28.11;45.35;98993.36;1691548;83;20961;-65
2021/06/22 09:01:13;;;;;;;;;;;;;;;27.78;45.31;98980.64;1698758;83;20990;-65
2021/06/22 09:03:41;;;;;;;8.28;3.40;;;;;;;27.63;46.24;98981.33;1696229;83;20421;-65
2021/06/22 09:06:08;;;;;;;11.05;3.90;;;;;;;27.62;45.98;98991.23;1698063;83;21636;-65
2021/06/22 09:08:34;;;;;;;;;;;;;;;27.82;45.96;98991.33;1672389;83;21187;-64
2021/06/22 09:11:11;;;;;;;14.80;4.30;;;;;;;27.97;46.16;98993.02;1649478;85;20634;-65
2021/06/22 09:13:41;;;;;;;7.45;3.62;;;;;;;28.10;45.82;98988.52;1649716;85;21058;-65
2021/06/22 09:16:12;;;;;;;11.18;4.28;;;;;;;28.24;45.92;98990.70;1647021;85;21095;-65
2021/06/22 09:18:47;;;;;;;9.40;4.00;;;;;;;28.39;45.87;98995.05;1650793;85;21081;-66
2021/06/22 09:21:19;;;;;;;9.33;4.35;;;;;;;28.23;45.22;98999.80;1584305;86;21358;-65
2021/06/22 09:23:47;;;;;;;17.48;3.60;;;;;;;28.19;45.61;99011.95;1666158;84;20967;-66
2021/06/22 09:26:18;;;;;;;6.92;3.65;;;;;;;28.03;45.63;99012.33;1645715;85;21016;-65
2021/06/22 09:28:46;;;;;;;8.50;3.77;;;;;;;27.89;45.72;99010.94;1646390;85;21148;-65
2021/06/22 09:31:19;;;;;;;8.90;4.05;;;;;;;28.09;46.11;99016.88;1648871;85;21022;-65
2021/06/22 09:33:51;;;;;;;12.68;4.10;;;;;;;28.31;45.87;99022.91;1645305;85;22016;-65
2021/06/22 09:36:32;;;;;;;6.12;3.33;;;;;;;28.48;45.78;99027.41;1633806;86;21076;-66
2021/06/22 09:39:05;;;;;;;8.35;4.08;;;;;;;28.61;45.46;99023.91;1639037;85;21089;-65
2021/06/22 09:41:36;;;;;;;10.78;3.87;;;;;;;28.52;45.42;99030.01;1671872;84;21539;-66
2021/06/22 09:44:09;;;;;;;13.20;3.98;;;;;;;28.53;44.98;99042.39;1649431;85;21584;-64
2021/06/22 09:46:50;;;;;;;10.98;4.03;;;;;;;28.30;45.16;99046.25;1649373;85;21953;-64
2021/06/22 09:49:24;;;;;;;6.45;3.67;;;;;;;28.23;45.46;99040.06;1648151;85;20962;-65
2021/06/22 09:51:57;;;;;;;9.13;4.62;;;;;;;28.41;45.22;99045.34;1648889;85;21108;-65
2021/06/22 09:54:29;;;;;;;10.03;4.10;;;;;;;28.45;45.35;99039.90;1645996;85;21018;-65
2021/06/22 09:57:12;;;;;;;12.70;4.12;;;;;;;28.70;45.85;99049.00;1646525;85;21853;-66
2021/06/22 09:59:57;;;;;;;10.18;4.53;;;;;;;28.63;44.62;99053.56;1650327;84;21115;-65
2021/06/22 10:02:26;;;;;;;163.35;27.22;;;;;;;28.46;45.11;99052.31;1668667;84;20970;-66
2021/06/22 10:04:59;;;;;;;57.53;11.08;;;;;;;28.32;45.62;99052.25;1653371;85;21040;-66
2021/06/22 10:07:28;;;;;;;123.33;19.15;;;;;;;28.64;45.96;99053.86;1635018;84;22494;-65
2021/06/22 10:09:58;;;;;;;387.02;63.73;;;;;;;28.78;46.19;99054.17;1652421;85;20997;-65
2021/06/22 10:12:29;;;;;;;124.33;19.45;;;;;;;29.16;46.60;99046.86;1651726;84;21112;-65
2021/06/22 10:15:03;;;;;;;57.23;11.08;;;;;;;29.40;46.25;99051.24;1679239;84;21021;-65
2021/06/22 10:17:29;;;;;;;20.62;5.70;;;;;;;29.42;46.27;99051.87;1685553;83;20964;-66
2021/06/22 10:19:59;;;;;;;64.20;10.10;;;;;;;29.19;46.50;99058.53;1689605;83;21001;-65
2021/06/22 10:22:31;;;;;;;16.25;5.87;;;;;;;28.97;46.51;99067.83;1681245;83;20993;-65
2021/06/22 10:25:00;;;;;;;37.42;9.30;;;;;;;28.44;47.29;99069.13;1678545;83;21941;-66
2021/06/22 10:27:28;;;;;;;37.83;8.48;;;;;;;28.38;47.81;99069.41;1676294;84;21061;-64
2021/06/22 10:30:00;;;;;;;50.65;11.97;;;;;;;28.55;48.09;99078.75;1671291;83;21045;-65
2021/06/22 10:32:27;;;;;;;16.90;6.42;;;;;;;28.49;47.95;99078.75;1672493;84;20970;-65
2021/06/22 10:35:04;;;;;;;15.15;5.85;;;;;;;28.25;48.20;99088.97;1674749;84;21025;-65
2021/06/22 10:37:41;;;;;;;29.92;6.97;;;;;;;28.01;48.66;99086.85;1673714;84;21623;-66
2021/06/22 10:40:26;;;;;;;16.73;5.90;;;;;;;27.70;48.85;99094.83;1684733;83;20973;-65
2021/06/22 10:42:56;;;;;;;33.30;7.65;;;;;;;27.61;50.10;99091.98;1679430;83;20999;-65
2021/06/22 10:45:23;;;;;;;14.50;6.10;;;;;;;27.53;49.58;99089.45;1674183;83;21135;-65
2021/06/22 10:47:52;;;;;;;30.48;7.65;;;;;;;27.93;49.54;99089.70;1682385;83;20997;-66
2021/06/22 10:50:27;;;;;;;83.33;14.43;;;;;;;28.10;49.63;99099.88;1668626;83;21305;-65
2021/06/22 10:53:09;;;;;;;17.42;6.17;;;;;;;28.25;49.52;99094.34;1682951;83;21040;-66
2021/06/22 10:55:43;;;;;;;23.52;6.60;;;;;;;28.07;49.33;99090.07;1685304;83;20933;-66
2021/06/22 10:58:17;;;;;;;173.90;25.77;;;;;;;27.77;49.56;99092.99;1679610;83;21052;-66
2021/06/22 11:00:58;;;;;;;23.05;6.92;;;;;;;27.58;49.90;99096.39;1676843;83;21100;-65
2021/06/22 11:03:34;;;;;;;21.42;6.72;;;;;;;27.65;50.13;99089.23;1671920;83;21139;-66
2021/06/22 11:06:15;;;;;;;16.32;6.12;;;;;;;27.69;49.94;99094.50;1652628;84;21297;-65
2021/06/22 11:08:43;;;;;;;45.17;10.60;;;;;;;27.70;50.10;99092.16;1662777;84;22451;-65
2021/06/22 11:11:15;;;;;;;193.02;31.17;;;;;;;28.07;50.38;99090.89;1663601;84;21069;-65
2021/06/22 11:13:54;;;;;;;31.33;6.97;;;;;;;28.44;50.25;99087.93;1678060;83;21040;-65
2021/06/22 11:16:25;;;;;;;20.82;6.60;;;;;;;28.58;49.68;99093.63;1678660;83;21606;-65
2021/06/22 11:18:57;;;;;;;11.40;5.58;;;;;;;28.66;49.28;99084.56;1679615;83;21104;-65
2021/06/22 11:21:32;;;;;;;27.32;7.12;;;;;;;28.36;49.26;99086.22;1678383;84;21002;-65
2021/06/22 11:24:14;;;;;;;24.25;6.70;;;;;;;28.34;49.74;99077.05;1685048;84;21085;-66
2021/06/22 11:26:58;;;;;;;16.20;5.62;;;;;;;28.74;49.83;99079.81;1683529;84;21570;-65
2021/06/22 11:29:28;;;;;;;18.40;6.08;;;;;;;28.61;48.87;99080.31;1695279;83;21362;-66
2021/06/22 11:31:59;;;;;;;30.77;7.87;;;;;;;28.54;49.30;99076.28;1686317;83;20957;-65
2021/06/22 11:34:32;;;;;;;21.00;6.58;;;;;;;28.72;49.77;99093.95;1695397;83;21532;-66
2021/06/22 11:37:11;;;;;;;11.22;5.87;;;;;;;29.12;49.21;99095.33;1702100;82;21426;-66
2021/06/22 11:39:59;;;;;;;19.45;6.17;;;;;;;29.12;48.96;99105.27;1668329;84;21094;-66
2021/06/22 11:42:26;;;;;;;19.27;7.25;;;;;;;29.30;48.98;99096.58;1661196;84;22595;-66